• Join FlightAware (Why Join?)
  • Login
  • US Flag 
06:41AM EST


 

Airport Tracker/Info


-or-


 

Live Flight TrackerFlight Track Log ✈ UAL4419 ✈ 28-Apr-2013 ✈ KIAH - KLIT

Flight Track Log - Related Links

Times and Time Zones

All times are in EDT time to prevent confusion due to time zone crossing. See the UAL4419 flight status page for this flight to view local times or setup timezone preferences in your user account.

Time Position Orientation Groundspeed Altitude Reporting Facility
EDT Latitude Longitude Course Direction KTS MPH feet Rate Location/Type
08:18PM 29.9786 -95.2981 51° Northeast 182 209 600  Level Houston Center
08:18PM 29.9906 -95.2808 51° Northeast 193 222 1,600 1,742 Climbing Houston Center
08:19PM 30.0522 -95.2642 13° North 229 264 3,300 2,419 Climbing Houston Center
08:21PM 30.1361 -95.2411 13° North 251 289 6,600 3,048 Climbing Houston Center
08:22PM 30.2061 -95.2497 354° North 249 287 9,600 1,984 Climbing Houston Center
08:23PM 30.2783 -95.2333 11° North 280 322 10,700 823 Climbing Houston Center
08:24PM 30.3608 -95.1922 23° Northeast 319 367 11,300 726 Climbing Houston Center
08:25PM 30.4531 -95.1439 24° Northeast 361 415 12,200 1,161 Climbing Houston Center
08:26PM 30.5486 -95.0958 23° Northeast 370 426 13,700 1,403 Climbing Houston Center
08:27PM 30.6614 -95.0300 27° Northeast 375 432 15,100 1,161 Climbing Houston Center
08:28PM 30.7442 -94.9514 39° Northeast 387 445 16,100 919 Climbing Houston Center
08:29PM 30.8069 -94.8453 55° Northeast 398 458 17,000 435 Climbing Houston Center
08:30PM 30.8767 -94.7403 52° Northeast 410 472 17,000  Level Houston Center
08:30PM 30.9294 -94.6914 38° Northeast 418 481 17,000  Level Fort Worth Center
08:31PM 31.0258 -94.6233 31° Northeast 418 481 17,000 50 Level Fort Worth Center
08:32PM 31.1206 -94.5647 28° Northeast 398 458 17,100 500 Climbing Fort Worth Center
08:33PM 31.2175 -94.5033 28° Northeast 392 451 18,000 1,000 Climbing Fort Worth Center
08:34PM 31.3119 -94.4444 28° Northeast 384 442 19,100 1,100 Climbing Fort Worth Center
08:35PM 31.4231 -94.3703 30° Northeast 398 458 20,200 1,100 Climbing Fort Worth Center
08:36PM 31.5217 -94.3061 29° Northeast 398 458 21,300 1,050 Climbing Fort Worth Center
08:37PM 31.6222 -94.2419 29° Northeast 403 464 22,300 1,000 Climbing Fort Worth Center
08:38PM 31.7208 -94.1775 29° Northeast 408 470 23,300 1,000 Climbing Fort Worth Center
08:39PM 31.8236 -94.1103 29° Northeast 408 470 24,300 850 Climbing Fort Worth Center
08:40PM 31.9222 -94.0481 28° Northeast 408 470 25,000 350 Climbing Fort Worth Center
08:41PM 32.0267 -93.9781 30° Northeast 408 470 25,000  Level Fort Worth Center
08:42PM 32.1333 -93.9078 29° Northeast 423 487 25,000  Level Fort Worth Center
08:43PM 32.2294 -93.8403 31° Northeast 430 495 25,000  Level Fort Worth Center
08:44PM 32.3361 -93.7719 28° Northeast 435 501 25,000  Level Fort Worth Center
08:45PM 32.4425 -93.7014 29° Northeast 430 495 25,000  Level Fort Worth Center
08:46PM 32.5511 -93.6278 30° Northeast 430 495 25,000  Level Fort Worth Center
08:47PM 32.6575 -93.5567 29° Northeast 430 495 25,000  Level Fort Worth Center
08:48PM 32.7639 -93.4881 28° Northeast 430 495 25,000  Level Fort Worth Center
08:49PM 32.8681 -93.4167 30° Northeast 430 495 25,000 -50 Level Fort Worth Center
08:50PM 32.9722 -93.3475 29° Northeast 430 495 24,900 -250 Descending Fort Worth Center
08:51PM 33.0786 -93.2783 29° Northeast 430 495 24,500 -450 Descending Fort Worth Center
08:52PM 33.1806 -93.2067 30° Northeast 425 489 24,000 -250 Descending Fort Worth Center
08:53PM 33.2847 -93.1394 28° Northeast 425 489 24,000  Level Fort Worth Center
08:54PM 33.3889 -93.0722 28° Northeast 425 489 24,000  Level Fort Worth Center
08:55PM 33.4239 -93.0478 30° Northeast 426 490 24,000 -640 Level Memphis Center
08:56PM 33.5253 -92.9811 29° Northeast 433 498 23,200 -850 Descending Memphis Center
08:57PM 33.6228 -92.9117 31° Northeast 427 491 22,300 -950 Descending Memphis Center
08:58PM 33.7200 -92.8472 29° Northeast 416 479 21,300 -1,000 Descending Memphis Center
08:59PM 33.8175 -92.7800 30° Northeast 405 466 20,300 -1,050 Descending Memphis Center
09:00PM 33.9147 -92.7150 29° Northeast 405 466 19,200 -1,750 Descending Memphis Center
09:01PM 34.0056 -92.6500 31° Northeast 393 452 16,800 -2,475 Descending Memphis Center
09:01PM 34.0311 -92.6331 29° Northeast 378 435 15,900 -2,250 Descending Memphis Center
09:02PM 34.0881 -92.5944 29° Northeast 374 430 14,700 -1,546 Descending Memphis Center
09:03PM 34.1789 -92.5289 31° Northeast 381 438 13,400 -1,131 Descending Memphis Center
09:04PM 34.2678 -92.4658 30° Northeast 364 419 12,400 -992 Descending Memphis Center
09:05PM 34.3500 -92.4125 28° Northeast 343 395 11,400 -1,091 Descending Memphis Center
09:06PM 34.4239 -92.3589 31° Northeast 271 312 10,200 -1,377 Descending Memphis Center
09:07PM 34.4831 -92.3175 30° Northeast 253 291 8,600 -1,636 Descending Memphis Center
09:08PM 34.5483 -92.2711 30° Northeast 250 288 6,900 -1,650 Descending Memphis Center
09:09PM 34.6053 -92.2319 30° Northeast 236 272 5,300 -1,400 Descending Memphis Center
09:10PM 34.6664 -92.1903 29° Northeast 236 272 4,100 -1,150 Descending Memphis Center
09:11PM 34.7069 -92.1331 49° Northeast 225 259 3,000 -1,050 Descending Memphis Center
09:12PM 34.7453 -92.0783 50° Northeast 215 247 2,000 -1,000 Descending Memphis Center